Dobbins AFB, Georgia
Current Conditions -  °F | °C
As of 2:58 AM on Monday 26 Jan 2015 (Local Time) from KMGE Reporting Station
Broken Clouds Broken Clouds  
Wind Chill: 35°   Ceiling: 9500
Heat Index: 43°   Visibility: 10mi
Dew Point: 41°   Wind: 16mph
Humidity: 93%   Direction: 270°W
Pressure: 29.72"   Gusts: NA
Location:  33.9252°N, 84.5422°W
Report Text: KMGE 260758Z AUTO 27014KT 10SM FEW015 SCT025 BKN095 06/05 A2972 RMK AO2 SLP065 $
Loading
Personal Weather Stations






























Interactive Weather Map New forecast layout! Learn more

10-Day Weather Forecast

Advertisements
Track Severe Weather on mobile